Luzerne, Michigan
Current Conditions -  °F | °C
As of 1:35 AM on Tuesday 21 Oct 2014 (Local Time) from KGOV Reporting Station
Light Rain Light Rain  
Wind Chill: 43°   Ceiling: 1600
Heat Index: 46°   Visibility: 5mi
Dew Point: 46°   Wind: 6mph
Humidity: 98%   Direction: 330°NNW
Pressure: 29.93"   Gusts: NA
Location:  44.62°N, 84.27°W
Report Text: KGOV 210535Z AUTO 33005KT 5SM -RA SCT008 OVC016 08/08 A2993 RMK AO2 T00790076
Loading
Personal Weather Stations






























Interactive Weather Map
Tropical Storm Tracking
New forecast layout! Learn more

10-Day Weather Forecast

Advertisements
Track Severe Weather on mobile